Mexia, TX

7:35 AM CDT on October 02, 2014 (GMT -0500)
Hillsboro | Change Station
CLOSE
Current Station
Airport
Location: Hillsboro,
Elevation: 686 ft
Nearby Weather Stations

Elev 686 ft 32.08 °N, 97.10 °W | Updated 20 minutes ago

Partly Cloudy
Partly Cloudy
76 °F
Feels Like 76 °F
N
8
Wind Variable Wind from SE

Today
High -- | Low -- °F
--% Chance of Precip.
Yesterday
High -- | Low -- °F
Precip. -- in
7:20 AM 7:09 PM
First Quarter, 58% visible
Pressure 29.83 in
Visibility 10.0 miles
Clouds Clear
Dew Point 70 °F
Humidity 82%
Rainfall 0.00 in
Snow Depth Not available.
UV 0 out of 12
Pollen 8.90 out of 12
Air Quality Not available.
Flu Activity Not available.
METAR KINJ 021215Z AUTO 14007KT 10SM CLR 24/21 A2983 RMK AO2 T02430210

More Conditions Fewer Conditions

Pressure 29.83 in
Visibility 10.0 miles
Clouds Clear
Dew Point 70 °F
Humidity 82%
Rainfall 0.00 in
Snow Depth Not available.
UV 0 out of 12
Pollen 8.90 out of 12
Air Quality Not available.
Flu Activity Not available.
METAR KINJ 021215Z AUTO 14007KT 10SM CLR 24/21 A2983 RMK AO2 T02430210

More Conditions Fewer Conditions

10-Day Weather Forecast

Almanac

Astronomy

Oct. 02, 2014 Rise Set
Actual Time 7:20 AM CDT 7:09 PM CDT
Civil Twilight 6:56 AM CDT 7:33 PM CDT
Nautical Twilight 6:27 AM CDT 8:02 PM CDT
Astronomical Twilight 5:59 AM CDT 8:30 PM CDT
Moon 2:57 PM CDT 12:58 AM CDT
Length of Visible Light 12h 37m
Length of Day
11h 49m
Tomorrow will be 1m 54s shorter.
First Quarter, 58% of the Moon is Illuminated
Today
First Quarter
Oct 8
Full
Oct 15
Last Quarter
Oct 23
New
Oct 30
First Quarter

Today's Extremes

State Highs State Lows

Community

WunderPhotos

Upload Photos

1,758,223 photos uploaded!

WunderBlogs® & News

Nearby

Snow Depth

Station Depth Elevation
No new snow has been reported.

Earthquake Activity

City Distance Mag. Time & Date
No recent earthquake activity has been reported nearby.
Minimum magnitude displayed is 2.5.

Coastal Water Temperatures

Place Temperature
No Stations Reporting

Nearby Weather Stations